KCBK/CBK METAR and TAF weather

Enter ICAO airport designator
Station Type Date Time Source
KCBK METAR 2022/08/12 14:35 UTC NOAA

KCBK 121435Z AUTO 20012KT 10SM CLR 26/14 A3018 RMK AO2 T02640140


Station Type Date Time Source
KCBK Decoded METAR 2022/08/12 14:35 UTC NOAA

Station name not available
Aug 12, 2022 - 10:35 AM EDT / 2022.08.12 1435 UTC
Wind: from the SSW (200 degrees) at 14 MPH (12 KT):0
Visibility: 10 mile(s):0
Sky conditions: clear
Temperature: 79.5 F (26.4 C)
Dew Point: 57.2 F (14.0 C)
Relative Humidity: 46%
Pressure (altimeter): 30.18 in. Hg (1022 hPa)
ob: KCBK 121435Z AUTO 20012KT 10SM CLR 26/14 A3018 RMK AO2 T02640140
cycle: 14

Station Type Date Time Source
KCBK TAF UTC NOAA

Error!

Example: see airport list